createdAt,value
2023-05-05T00:01:10.335Z,93036.22
2023-05-05T00:03:53.532Z,93034.25
2023-05-05T00:06:37.899Z,93033.31
2023-05-05T00:09:20.818Z,93036.84
2023-05-05T00:12:03.732Z,93037.81
2023-05-05T00:14:46.691Z,93034.44
2023-05-05T00:17:29.706Z,93027.84
2023-05-05T00:20:13.700Z,93036.34
2023-05-05T00:22:58.028Z,93032.03
2023-05-05T00:25:41.133Z,93032.81
2023-05-05T00:28:24.086Z,93035.41
2023-05-05T00:31:07.564Z,93037.97
2023-05-05T00:33:50.521Z,93033.63
2023-05-05T00:36:33.931Z,93045.72
2023-05-05T00:39:18.609Z,93044.91
2023-05-05T00:42:01.326Z,93038.94
2023-05-05T00:44:44.980Z,93038.16
2023-05-05T00:47:27.976Z,93045.22
2023-05-05T00:50:12.006Z,93043.91
2023-05-05T00:52:57.269Z,93045.19
2023-05-05T00:55:41.674Z,93039.38
2023-05-05T00:58:25.759Z,93034.56
2023-05-05T01:01:08.973Z,93032.94
2023-05-05T01:03:52.235Z,93037.28
2023-05-05T01:06:49.562Z,93031.31
2023-05-05T01:09:39.566Z,93022.94
2023-05-05T01:12:38.308Z,93024.69
2023-05-05T01:15:30.459Z,93019.41
2023-05-05T01:18:24.907Z,93022.13
2023-05-05T01:21:14.802Z,93027.28
2023-05-05T01:24:40.136Z,93033.38
2023-05-05T01:27:51.224Z,93032.59
2023-05-05T01:30:56.131Z,93021.63
2023-05-05T01:33:46.945Z,93019.38
2023-05-05T01:36:37.370Z,93027.09
2023-05-05T01:39:22.102Z,93021.94
2023-05-05T01:42:09.303Z,93022.91
2023-05-05T01:44:54.106Z,93021.28
2023-05-05T01:47:38.789Z,93019.66
2023-05-05T01:50:24.091Z,93025.47
2023-05-05T01:53:09.588Z,93016.00
2023-05-05T01:55:53.963Z,93022.09
2023-05-05T01:58:38.607Z,93009.53
2023-05-05T02:01:23.796Z,93016.47
2023-05-05T02:04:09.853Z,93004.69
2023-05-05T02:06:57.423Z,93007.56
2023-05-05T02:09:41.903Z,93003.53
2023-05-05T02:12:24.910Z,93009.50
2023-05-05T02:15:09.989Z,93009.66
2023-05-05T02:17:53.991Z,93009.81
2023-05-05T02:20:39.690Z,93009.78
2023-05-05T02:23:23.764Z,93008.03
2023-05-05T02:26:09.118Z,93002.41
2023-05-05T02:29:02.054Z,93010.28
2023-05-05T02:31:49.243Z,93008.03
2023-05-05T02:34:41.203Z,93003.00
2023-05-05T02:37:31.104Z,93004.41
2023-05-05T02:40:21.063Z,93003.41
2023-05-05T02:43:07.481Z,93003.59
2023-05-05T02:45:50.561Z,93003.75
2023-05-05T02:48:34.837Z,93001.31
2023-05-05T02:51:18.334Z,92997.00
2023-05-05T02:54:01.676Z,92998.91
2023-05-05T02:56:51.052Z,92999.06
2023-05-05T02:59:43.042Z,93009.22
2023-05-05T03:02:36.418Z,93006.63
2023-05-05T03:05:26.314Z,92999.06
2023-05-05T03:08:15.138Z,93006.16
2023-05-05T03:11:01.127Z,93002.25
2023-05-05T03:13:48.071Z,92994.84
2023-05-05T03:16:36.770Z,93014.94
2023-05-05T03:19:21.413Z,93015.91
2023-05-05T03:22:09.318Z,93009.28
2023-05-05T03:24:55.162Z,93006.06
2023-05-05T03:27:40.309Z,93013.91
2023-05-05T03:30:25.470Z,93012.16
2023-05-05T03:33:09.383Z,93017.44
2023-05-05T03:35:52.571Z,93015.69
2023-05-05T03:38:35.471Z,93017.44
2023-05-05T03:41:18.427Z,93022.84
2023-05-05T03:44:01.838Z,93023.16
2023-05-05T03:46:47.058Z,93027.63
2023-05-05T03:49:31.701Z,93023.41
2023-05-05T03:52:15.141Z,93025.38
2023-05-05T03:55:00.208Z,93027.13
2023-05-05T03:57:45.967Z,93029.97
2023-05-05T04:00:28.918Z,93024.03
2023-05-05T04:03:13.573Z,93025.13
2023-05-05T04:05:56.805Z,93029.78
2023-05-05T04:08:40.610Z,93028.47
2023-05-05T04:11:23.966Z,93030.41
2023-05-05T04:14:07.070Z,93022.81
2023-05-05T04:16:50.292Z,93022.97
2023-05-05T04:19:34.633Z,93030.69
2023-05-05T04:22:19.183Z,93026.50
2023-05-05T04:25:02.311Z,93030.69
2023-05-05T04:27:45.848Z,93032.97
2023-05-05T04:30:30.281Z,93033.47
2023-05-05T04:33:13.987Z,93037.38
2023-05-05T04:35:58.510Z,93043.13
2023-05-05T04:38:41.751Z,93047.50
2023-05-05T04:41:24.859Z,93045.41
2023-05-05T04:44:07.920Z,93045.41
2023-05-05T04:46:50.950Z,93037.56
2023-05-05T04:49:34.047Z,93035.66
2023-05-05T04:52:19.268Z,93038.06
2023-05-05T04:55:02.976Z,93030.19
2023-05-05T04:57:45.878Z,93038.31
2023-05-05T05:00:28.793Z,93038.97
2023-05-05T05:03:12.703Z,93039.47
2023-05-05T05:05:55.608Z,93045.09
2023-05-05T05:08:39.957Z,93047.25
2023-05-05T05:11:23.012Z,93052.72
2023-05-05T05:14:05.970Z,93053.09
2023-05-05T05:16:52.426Z,93047.66
2023-05-05T05:19:37.667Z,93050.56
2023-05-05T05:22:20.812Z,93052.81
2023-05-05T05:25:05.890Z,93044.50
2023-05-05T05:27:58.473Z,93054.19
2023-05-05T05:30:52.141Z,93043.13
2023-05-05T05:33:35.674Z,93040.09
2023-05-05T05:36:18.622Z,93042.66
2023-05-05T05:39:01.987Z,93036.59
2023-05-05T05:41:46.538Z,93041.63
2023-05-05T05:44:29.652Z,93043.44
2023-05-05T05:47:12.902Z,93041.03
2023-05-05T05:49:55.803Z,93046.84
2023-05-05T05:52:39.134Z,93046.88
2023-05-05T05:55:22.871Z,93041.59
2023-05-05T05:58:07.400Z,93043.38
2023-05-05T06:00:50.960Z,93052.88
2023-05-05T06:03:34.032Z,93045.81
2023-05-05T06:06:17.271Z,93046.31
2023-05-05T06:09:00.585Z,93047.91
2023-05-05T06:11:44.493Z,93053.88
2023-05-05T06:14:28.977Z,93048.75
2023-05-05T06:17:11.941Z,93043.56
2023-05-05T06:19:57.835Z,93050.34
2023-05-05T06:22:40.793Z,93060.00
2023-05-05T06:25:23.871Z,93050.31
2023-05-05T06:28:09.339Z,93054.94
2023-05-05T06:30:53.639Z,93050.56
2023-05-05T06:33:36.588Z,93046.53
2023-05-05T06:36:19.547Z,93055.06
2023-05-05T06:39:03.003Z,93041.63
2023-05-05T06:41:45.924Z,93042.41
2023-05-05T06:44:31.131Z,93046.25
2023-05-05T06:47:15.460Z,93051.59
2023-05-05T06:49:58.348Z,93048.31
2023-05-05T06:52:41.279Z,93052.66
2023-05-05T06:55:25.045Z,93055.56
2023-05-05T06:58:07.948Z,93064.75
2023-05-05T07:00:50.972Z,93066.34
2023-05-05T07:03:35.351Z,93064.50
2023-05-05T07:06:18.275Z,93058.94
2023-05-05T07:09:01.174Z,93059.88
2023-05-05T07:11:44.125Z,93055.28
2023-05-05T07:14:27.145Z,93046.19
2023-05-05T07:17:10.001Z,93052.72
2023-05-05T07:19:55.042Z,93052.50
2023-05-05T07:22:38.156Z,93055.56
2023-05-05T07:25:21.166Z,93059.16
2023-05-05T07:28:04.415Z,93053.09
2023-05-05T07:30:48.084Z,93046.34
2023-05-05T07:33:31.705Z,93048.34
2023-05-05T07:36:18.300Z,93052.75
2023-05-05T07:39:01.537Z,93051.94
2023-05-05T07:41:44.735Z,93050.78
2023-05-05T07:44:27.607Z,93051.41
2023-05-05T07:47:11.093Z,93051.75
2023-05-05T07:49:54.060Z,93045.13
2023-05-05T07:52:48.256Z,93053.88
2023-05-05T07:55:34.544Z,93045.91
2023-05-05T07:58:19.080Z,93050.25
2023-05-05T08:01:02.829Z,93052.03
2023-05-05T08:03:45.947Z,93044.84
2023-05-05T08:06:29.890Z,93038.22
2023-05-05T08:09:15.055Z,93041.06
2023-05-05T08:11:58.099Z,93048.06
2023-05-05T08:14:42.467Z,93044.22
2023-05-05T08:17:26.249Z,93050.50
2023-05-05T08:20:10.118Z,93049.38
2023-05-05T08:22:53.713Z,93056.28
2023-05-05T08:25:38.109Z,93043.94
2023-05-05T08:28:21.062Z,93052.09
2023-05-05T08:31:04.209Z,93047.19
2023-05-05T08:33:47.760Z,93056.06
2023-05-05T08:36:31.040Z,93048.69
2023-05-05T08:39:14.036Z,93051.75
2023-05-05T08:41:59.067Z,93056.63
2023-05-05T08:44:43.130Z,93047.09
2023-05-05T08:47:26.906Z,93054.53
2023-05-05T08:50:12.143Z,93054.34
2023-05-05T08:53:07.197Z,93061.41
2023-05-05T08:55:52.308Z,93051.25
2023-05-05T08:58:38.157Z,93056.88
2023-05-05T09:01:22.272Z,93060.56
2023-05-05T09:04:10.072Z,93056.19
2023-05-05T09:06:53.742Z,93055.19
2023-05-05T09:09:37.185Z,93052.38
2023-05-05T09:12:22.734Z,93055.78
2023-05-05T09:15:08.129Z,93055.38
2023-05-05T09:17:51.522Z,93045.75
2023-05-05T09:20:35.973Z,93039.75
2023-05-05T09:23:20.405Z,93041.50
2023-05-05T09:26:05.272Z,93038.78
2023-05-05T09:28:52.912Z,93039.06
2023-05-05T09:31:38.173Z,93040.00
2023-05-05T09:34:21.155Z,93033.91
2023-05-05T09:37:04.337Z,93028.31
2023-05-05T09:39:56.098Z,93033.00
2023-05-05T09:42:40.066Z,93029.84
2023-05-05T09:45:27.828Z,93032.84
2023-05-05T09:48:26.436Z,93022.69
2023-05-05T09:51:10.136Z,93028.28
2023-05-05T09:53:53.511Z,93030.31
2023-05-05T09:56:41.185Z,93022.63
2023-05-05T09:59:25.113Z,93021.53
2023-05-05T10:02:13.678Z,93031.47
2023-05-05T10:05:07.015Z,93018.88
2023-05-05T10:07:49.957Z,93020.28
2023-05-05T10:10:33.072Z,93017.97
2023-05-05T10:13:19.799Z,93027.00
2023-05-05T10:16:05.395Z,93025.19
2023-05-05T10:18:48.986Z,93019.38
2023-05-05T10:21:42.166Z,93013.88
2023-05-05T10:24:36.113Z,93024.97
2023-05-05T10:27:22.103Z,93014.25
2023-05-05T10:30:07.622Z,93008.75
2023-05-05T10:33:07.920Z,93011.75
2023-05-05T10:36:01.854Z,93001.38
2023-05-05T10:38:47.478Z,93005.25
2023-05-05T10:41:31.887Z,93001.50
2023-05-05T10:44:16.276Z,92995.53
2023-05-05T10:47:01.133Z,92997.69
2023-05-05T10:49:50.084Z,92995.94
2023-05-05T10:52:39.560Z,92995.47
2023-05-05T10:55:30.028Z,92992.78
2023-05-05T10:58:35.030Z,92999.22
2023-05-05T11:01:32.575Z,92982.53
2023-05-05T11:04:23.106Z,92981.75
2023-05-05T11:07:27.560Z,92982.59
2023-05-05T11:10:12.224Z,92977.31
2023-05-05T11:13:24.489Z,92976.63
2023-05-05T11:16:48.095Z,92969.00
2023-05-05T11:19:48.261Z,92969.47
2023-05-05T11:22:31.273Z,92967.41
2023-05-05T11:25:51.511Z,92972.34
2023-05-05T11:28:36.189Z,92968.50
2023-05-05T11:31:20.273Z,92973.34
2023-05-05T11:34:26.834Z,92966.94
2023-05-05T11:37:09.992Z,92964.94
2023-05-05T11:40:04.655Z,92974.50
2023-05-05T11:42:47.590Z,92967.53
2023-05-05T11:45:32.637Z,92963.34
2023-05-05T11:48:28.255Z,92966.19
2023-05-05T11:51:12.655Z,92961.09
2023-05-05T11:53:58.412Z,92953.19
2023-05-05T11:56:51.104Z,92958.81
2023-05-05T11:59:34.889Z,92955.28
2023-05-05T12:02:19.585Z,92954.25
2023-05-05T12:05:02.920Z,92950.03
2023-05-05T12:07:46.897Z,92951.44
2023-05-05T12:10:30.023Z,92951.34
2023-05-05T12:13:20.385Z,92947.69
2023-05-05T12:16:10.601Z,92951.41
2023-05-05T12:19:06.827Z,92944.28
2023-05-05T12:21:50.200Z,92944.19
2023-05-05T12:24:33.102Z,92944.13
2023-05-05T12:27:16.062Z,92943.88
2023-05-05T12:30:12.491Z,92944.63
2023-05-05T12:33:03.206Z,92940.94
2023-05-05T12:35:48.080Z,92937.97
2023-05-05T12:38:31.072Z,92936.44
2023-05-05T12:41:19.742Z,92931.09
2023-05-05T12:44:05.252Z,92930.13
2023-05-05T12:46:52.408Z,92919.59
2023-05-05T12:49:46.501Z,92927.25
2023-05-05T12:52:43.341Z,92921.13
2023-05-05T12:55:37.497Z,92920.88
2023-05-05T12:58:20.822Z,92911.41
2023-05-05T13:01:10.205Z,92914.03
2023-05-05T13:04:10.908Z,92917.50
2023-05-05T13:07:10.849Z,92908.50
2023-05-05T13:10:08.286Z,92905.63
2023-05-05T13:12:51.657Z,92906.97
2023-05-05T13:15:35.264Z,92899.53
2023-05-05T13:18:18.230Z,92892.94
2023-05-05T13:21:01.109Z,92886.31
2023-05-05T13:23:44.982Z,92885.25
2023-05-05T13:26:29.929Z,92883.91
2023-05-05T13:29:12.788Z,92888.97
2023-05-05T13:31:55.733Z,92880.72
2023-05-05T13:34:39.258Z,92874.34
2023-05-05T13:37:22.485Z,92874.31
2023-05-05T13:40:06.271Z,92874.34
2023-05-05T13:42:50.579Z,92870.88
2023-05-05T13:45:34.392Z,92872.50
2023-05-05T13:48:17.394Z,92862.19
2023-05-05T13:51:00.459Z,92857.41
2023-05-05T13:53:44.071Z,92860.59
2023-05-05T13:56:27.829Z,92854.25
2023-05-05T13:59:12.097Z,92859.81
2023-05-05T14:01:56.044Z,92857.97
2023-05-05T14:04:38.886Z,92855.06
2023-05-05T14:07:21.957Z,92847.63
2023-05-05T14:10:05.620Z,92853.19
2023-05-05T14:12:48.856Z,92845.75
2023-05-05T14:15:33.415Z,92846.03
2023-05-05T14:18:16.689Z,92837.81
2023-05-05T14:20:59.577Z,92845.25
2023-05-05T14:23:42.467Z,92841.03
2023-05-05T14:26:25.762Z,92839.97
2023-05-05T14:29:08.733Z,92837.31
2023-05-05T14:31:53.060Z,92836.53
2023-05-05T14:34:36.036Z,92837.56
2023-05-05T14:37:18.929Z,92837.59
2023-05-05T14:40:03.661Z,92834.16
2023-05-05T14:42:50.889Z,92833.38
2023-05-05T14:45:34.132Z,92836.81
2023-05-05T14:48:21.760Z,92836.81
2023-05-05T14:51:05.378Z,92831.50
2023-05-05T14:53:48.268Z,92829.09
2023-05-05T14:56:31.301Z,92830.34
2023-05-05T14:59:14.289Z,92818.88
2023-05-05T15:01:57.455Z,92818.78
2023-05-05T15:04:42.320Z,92818.97
2023-05-05T15:07:28.406Z,92818.38
2023-05-05T15:10:12.185Z,92816.53
2023-05-05T15:12:55.141Z,92810.38
2023-05-05T15:15:38.078Z,92816.13
2023-05-05T15:18:21.084Z,92814.59
2023-05-05T15:21:05.925Z,92812.25
2023-05-05T15:23:48.844Z,92807.66
2023-05-05T15:26:31.930Z,92816.44
2023-05-05T15:29:15.025Z,92809.66
2023-05-05T15:31:57.956Z,92812.69
2023-05-05T15:34:41.077Z,92804.97
2023-05-05T15:37:26.329Z,92807.50
2023-05-05T15:40:10.434Z,92806.19
2023-05-05T15:42:53.520Z,92800.00
2023-05-05T15:45:36.425Z,92797.81
2023-05-05T15:48:19.974Z,92796.75
2023-05-05T15:51:02.874Z,92795.19
2023-05-05T15:53:47.290Z,92795.88
2023-05-05T15:56:30.253Z,92788.97
2023-05-05T15:59:13.572Z,92795.19
2023-05-05T16:01:56.420Z,92792.31
2023-05-05T16:04:39.362Z,92786.53
2023-05-05T16:07:22.297Z,92782.22
2023-05-05T16:10:07.592Z,92779.53
2023-05-05T16:12:59.735Z,92781.59
2023-05-05T16:15:45.105Z,92776.13
2023-05-05T16:18:27.997Z,92775.94
2023-05-05T16:21:11.096Z,92774.84
2023-05-05T16:23:54.066Z,92766.78
2023-05-05T16:26:38.266Z,92761.94
2023-05-05T16:29:21.246Z,92764.50
2023-05-05T16:32:05.576Z,92759.22
2023-05-05T16:34:48.521Z,92752.03
2023-05-05T16:37:31.482Z,92756.97
2023-05-05T16:40:14.598Z,92756.88
2023-05-05T16:42:58.863Z,92759.78
2023-05-05T16:45:41.795Z,92748.53
2023-05-05T16:48:24.702Z,92752.81
2023-05-05T16:51:07.723Z,92747.84
2023-05-05T16:53:51.323Z,92754.00
2023-05-05T16:56:34.237Z,92745.94
2023-05-05T16:59:19.369Z,92744.81
2023-05-05T17:02:02.528Z,92748.69
2023-05-05T17:04:45.617Z,92742.56
2023-05-05T17:07:28.582Z,92738.22
2023-05-05T17:10:11.910Z,92737.69
2023-05-05T17:12:55.395Z,92742.25
2023-05-05T17:15:40.086Z,92738.38
2023-05-05T17:18:25.842Z,92735.66
2023-05-05T17:21:08.999Z,92735.78
2023-05-05T17:23:51.888Z,92729.63
2023-05-05T17:26:34.802Z,92733.47
2023-05-05T17:29:19.864Z,92737.38
2023-05-05T17:32:04.399Z,92750.56
2023-05-05T17:34:48.172Z,92742.94
2023-05-05T17:37:31.364Z,92749.31
2023-05-05T17:40:14.500Z,92747.34
2023-05-05T17:42:58.067Z,92745.41
2023-05-05T17:45:42.293Z,92745.72
2023-05-05T17:48:27.191Z,92747.22
2023-05-05T17:51:10.370Z,92747.53
2023-05-05T17:53:53.263Z,92751.41
2023-05-05T17:56:36.912Z,92751.28
2023-05-05T17:59:19.791Z,92755.84
2023-05-05T18:02:02.815Z,92753.06
2023-05-05T18:04:47.338Z,92760.44
2023-05-05T18:07:30.591Z,92754.38
2023-05-05T18:10:13.601Z,92752.75
2023-05-05T18:12:57.500Z,92756.09
2023-05-05T18:15:41.225Z,92756.44
2023-05-05T18:18:24.203Z,92757.41
2023-05-05T18:21:12.060Z,92761.94
2023-05-05T18:24:01.775Z,92764.38
2023-05-05T18:26:52.395Z,92761.84
2023-05-05T18:29:36.140Z,92757.72
2023-05-05T18:32:19.208Z,92742.09
2023-05-05T18:35:02.133Z,92739.34
2023-05-05T18:37:46.560Z,92734.75
2023-05-05T18:40:29.467Z,92734.00
2023-05-05T18:43:13.096Z,92727.47
2023-05-05T18:45:56.102Z,92731.94
2023-05-05T18:48:39.018Z,92728.59
2023-05-05T18:51:21.885Z,92728.88
2023-05-05T18:54:07.425Z,92728.50
2023-05-05T18:56:50.343Z,92726.97
2023-05-05T18:59:33.252Z,92725.19
2023-05-05T19:02:17.895Z,92719.44
2023-05-05T19:05:01.232Z,92713.69
2023-05-05T19:07:45.456Z,92706.13
2023-05-05T19:10:29.795Z,92702.75
2023-05-05T19:13:12.875Z,92693.19
2023-05-05T19:15:57.210Z,92700.81
2023-05-05T19:18:40.134Z,92699.84
2023-05-05T19:21:23.075Z,92704.34
2023-05-05T19:24:07.588Z,92707.25
2023-05-05T19:26:51.920Z,92707.91
2023-05-05T19:29:34.797Z,92705.97
2023-05-05T19:32:17.846Z,92708.41
2023-05-05T19:35:01.500Z,92716.66
2023-05-05T19:37:45.451Z,92717.91
2023-05-05T19:40:28.334Z,92723.75
2023-05-05T19:43:13.418Z,92734.53
2023-05-05T19:45:56.356Z,92732.13
2023-05-05T19:48:39.239Z,92735.16
2023-05-05T19:51:22.489Z,92741.38
2023-05-05T19:54:06.178Z,92737.56
2023-05-05T19:56:49.105Z,92741.59
2023-05-05T19:59:33.653Z,92737.59
2023-05-05T20:02:17.096Z,92740.19
2023-05-05T20:05:00.057Z,92740.19
2023-05-05T20:07:42.926Z,92734.38
2023-05-05T20:10:27.631Z,92744.19
2023-05-05T20:13:10.390Z,92746.00
2023-05-05T20:15:55.433Z,92734.00
2023-05-05T20:18:39.745Z,92738.03
2023-05-05T20:21:22.755Z,92731.63
2023-05-05T20:24:06.482Z,92727.81
2023-05-05T20:26:50.484Z,92730.22
2023-05-05T20:29:33.378Z,92729.03
2023-05-05T20:32:20.667Z,92726.63
2023-05-05T20:35:05.534Z,92722.63
2023-05-05T20:37:48.705Z,92724.00
2023-05-05T20:40:31.721Z,92717.81
2023-05-05T20:43:14.629Z,92718.59
2023-05-05T20:45:57.528Z,92714.59
2023-05-05T20:48:43.038Z,92714.81
2023-05-05T20:51:29.276Z,92716.22
2023-05-05T20:54:12.169Z,92722.00
2023-05-05T20:56:58.167Z,92719.41
2023-05-05T20:59:41.094Z,92712.59
2023-05-05T21:02:24.267Z,92715.41
2023-05-05T21:05:09.394Z,92719.81
2023-05-05T21:07:54.875Z,92715.41
2023-05-05T21:10:38.471Z,92719.81
2023-05-05T21:13:23.019Z,92714.81
2023-05-05T21:16:06.811Z,92719.03
2023-05-05T21:18:49.959Z,92714.22
2023-05-05T21:21:34.425Z,92719.19
2023-05-05T21:24:17.308Z,92722.63
2023-05-05T21:27:00.192Z,92726.22
2023-05-05T21:29:43.095Z,92726.22
2023-05-05T21:32:26.139Z,92729.44
2023-05-05T21:35:10.224Z,92726.00
2023-05-05T21:37:54.470Z,92730.44
2023-05-05T21:40:37.325Z,92739.00
2023-05-05T21:43:20.214Z,92738.22
2023-05-05T21:46:03.791Z,92737.41
2023-05-05T21:48:48.230Z,92741.63
2023-05-05T21:51:31.501Z,92734.81
2023-05-05T21:54:15.927Z,92743.44
2023-05-05T21:56:58.815Z,92755.00
2023-05-05T21:59:41.738Z,92797.75
2023-05-05T22:02:24.664Z,92796.34
2023-05-05T22:05:09.367Z,92805.84
2023-05-05T22:07:52.249Z,92810.03
2023-05-05T22:10:37.514Z,92815.03
2023-05-05T22:13:20.561Z,92822.94
2023-05-05T22:16:03.565Z,92817.44
2023-05-05T22:18:47.268Z,92835.88
2023-05-05T22:21:30.215Z,92835.34
2023-05-05T22:24:13.088Z,92833.22
2023-05-05T22:26:57.551Z,92831.72
2023-05-05T22:29:40.419Z,92842.09
2023-05-05T22:32:23.354Z,92843.88
2023-05-05T22:35:07.413Z,92847.63
2023-05-05T22:37:50.440Z,92851.41
2023-05-05T22:40:33.392Z,92847.63
2023-05-05T22:43:17.661Z,92846.03
2023-05-05T22:46:01.105Z,92853.19
2023-05-05T22:48:44.065Z,92849.97
2023-05-05T22:51:27.898Z,92851.13
2023-05-05T22:54:10.862Z,92852.56
2023-05-05T22:56:53.697Z,92850.94
2023-05-05T22:59:38.023Z,92856.69
2023-05-05T23:02:20.910Z,92849.06
2023-05-05T23:05:04.036Z,92847.63
2023-05-05T23:07:46.941Z,92841.22
2023-05-05T23:10:30.046Z,92849.81
2023-05-05T23:13:13.027Z,92843.47
2023-05-05T23:15:57.312Z,92836.25
2023-05-05T23:18:40.199Z,92838.00
2023-05-05T23:21:23.234Z,92841.97
2023-05-05T23:24:06.603Z,92832.13
2023-05-05T23:26:49.566Z,92840.34
2023-05-05T23:29:33.462Z,92828.94
2023-05-05T23:32:17.689Z,92841.06
2023-05-05T23:35:01.154Z,92842.16
2023-05-05T23:37:44.055Z,92842.59
2023-05-05T23:40:27.159Z,92834.47
2023-05-05T23:43:12.006Z,92841.06
2023-05-05T23:45:54.880Z,92837.94
2023-05-05T23:48:39.383Z,92833.81
2023-05-05T23:51:22.337Z,92840.88
2023-05-05T23:54:05.436Z,92834.97
2023-05-05T23:56:48.554Z,92835.41
2023-05-05T23:59:31.518Z,92834.44
